PWSweather.com
Personal Weather Stations
Station Observations
PENICUIKWS
PenicuikGB

PenicuikGB

Lat: 55.830932, Lon: -3.224533000000065

Elevation: 166

Station Type: Fine Offset

http://weather.penicuik.org

High Low Average
Temperature 46.4°F8.0°C 38.5°F3.6°C 41.8°F5.4°C
Dew Point 39.7°F4.3°C 34.0°F1.1°C 36.0°F2.2°C
Winds 14.7 mph 23.7 kmh 1.9 mph 3.1 kmh 6.0 mph SSW9.7 kmh SSW
Wind Gusts 23.5 mph37.8 kmh 3.1 mph5.0 kmh 11.0 mph17.7 kmh
Humidity 88% 66% 80%
Pressure 30.04 in1017.3 mb 29.35 in993.9 mb -
Precipitation 0.09 in2.3 mm - -
Hour Temp Dew Point Humidity Winds Wind Gusts Pressure Precip Precip Rate Daily Precip Total
12:15 AM 41.4°F5.2°C 36.0°F2.2°C 81% 3.3 mph SSE5.3 kmh SSE 5.4 mph8.7 kmh 30.04 in1017.3 mb 0.00 in0.0 mm 0.00 in0.0 mm 0.00 in0.0 mm
12:45 AM 41.2°F5.1°C 35.8°F2.1°C 81% 2.8 mph WNW4.5 kmh WNW 5.4 mph8.7 kmh 30.02 in1016.6 mb 0.00 in0.0 mm 0.00 in0.0 mm 0.00 in0.0 mm
01:00 AM 41.2°F5.1°C 35.8°F2.1°C 81% 4.3 mph S6.9 kmh S 6.0 mph9.7 kmh 30.02 in1016.6 mb 0.00 in0.0 mm 0.00 in0.0 mm 0.00 in0.0 mm
01:15 AM 41.4°F5.2°C 36.3°F2.4°C 82% 6.1 mph S9.8 kmh S 7.6 mph12.2 kmh 30.02 in1016.6 mb 0.00 in0.0 mm 0.00 in0.0 mm 0.00 in0.0 mm
01:45 AM 41.9°F5.5°C 36.5°F2.5°C 81% 5.2 mph S8.4 kmh S 9.2 mph14.8 kmh 30.02 in1016.6 mb 0.00 in0.0 mm 0.00 in0.0 mm 0.00 in0.0 mm
02:00 AM 41.9°F5.5°C 36.5°F2.5°C 81% 7.6 mph S12.2 kmh S 9.2 mph14.8 kmh 30.02 in1016.6 mb 0.00 in0.0 mm 0.00 in0.0 mm 0.00 in0.0 mm
02:15 AM 42.1°F5.6°C 36.4°F2.4°C 80% 6.2 mph SW10.0 kmh SW 9.2 mph14.8 kmh 30.02 in1016.6 mb 0.00 in0.0 mm 0.00 in0.0 mm 0.00 in0.0 mm
02:30 AM 41.9°F5.5°C 36.5°F2.5°C 81% 3.3 mph S5.3 kmh S 4.5 mph7.2 kmh 30.03 in1016.9 mb 0.00 in0.0 mm 0.00 in0.0 mm 0.00 in0.0 mm
02:45 AM 41.9°F5.5°C 36.5°F2.5°C 81% 4.4 mph S7.1 kmh S 6.0 mph9.7 kmh 30.02 in1016.6 mb 0.00 in0.0 mm 0.00 in0.0 mm 0.00 in0.0 mm
03:15 AM 41.4°F5.2°C 36.3°F2.4°C 82% 3.5 mph S5.6 kmh S 5.4 mph8.7 kmh 30.02 in1016.6 mb 0.00 in0.0 mm 0.00 in0.0 mm 0.00 in0.0 mm
03:30 AM 41.4°F5.2°C 36.0°F2.2°C 81% 5.4 mph SW8.7 kmh SW 8.3 mph13.4 kmh 30.01 in1016.3 mb 0.00 in0.0 mm 0.00 in0.0 mm 0.00 in0.0 mm
03:45 AM 41.4°F5.2°C 36.0°F2.2°C 81% 4.7 mph SSE7.6 kmh SSE 6.9 mph11.1 kmh 30.02 in1016.6 mb 0.00 in0.0 mm 0.00 in0.0 mm 0.00 in0.0 mm
04:00 AM 41.4°F5.2°C 35.7°F2.1°C 80% 6.0 mph S9.7 kmh S 9.2 mph14.8 kmh 30.01 in1016.3 mb 0.00 in0.0 mm 0.00 in0.0 mm 0.00 in0.0 mm
04:15 AM 41.4°F5.2°C 35.7°F2.1°C 80% 6.1 mph SSE9.8 kmh SSE 9.2 mph14.8 kmh 30.01 in1016.3 mb 0.00 in0.0 mm 0.00 in0.0 mm 0.00 in0.0 mm
04:30 AM 41.4°F5.2°C 35.7°F2.1°C 80% 4.1 mph SSE6.6 kmh SSE 7.6 mph12.2 kmh 30.00 in1015.9 mb 0.00 in0.0 mm 0.00 in0.0 mm 0.00 in0.0 mm
04:45 AM 41.0°F5.0°C 35.3°F1.8°C 80% 4.6 mph SSE7.4 kmh SSE 6.0 mph9.7 kmh 29.99 in1015.6 mb 0.00 in0.0 mm 0.00 in0.0 mm 0.00 in0.0 mm
05:00 AM 40.8°F4.9°C 35.5°F1.9°C 81% 3.2 mph S5.1 kmh S 5.4 mph8.7 kmh 30.00 in1015.9 mb 0.00 in0.0 mm 0.00 in0.0 mm 0.00 in0.0 mm
05:30 AM 40.8°F4.9°C 35.5°F1.9°C 81% 3.5 mph S5.6 kmh S 6.9 mph11.1 kmh 30.00 in1015.9 mb 0.00 in0.0 mm 0.00 in0.0 mm 0.00 in0.0 mm
06:00 AM 40.8°F4.9°C 35.5°F1.9°C 81% 3.2 mph NW5.1 kmh NW 7.6 mph12.2 kmh 30.00 in1015.9 mb 0.00 in0.0 mm 0.00 in0.0 mm 0.00 in0.0 mm
06:15 AM 40.3°F4.6°C 34.9°F1.6°C 81% 3.5 mph S5.6 kmh S 8.3 mph13.4 kmh 30.00 in1015.9 mb 0.00 in0.0 mm 0.00 in0.0 mm 0.00 in0.0 mm
06:30 AM 40.1°F4.5°C 34.7°F1.5°C 81% 4.1 mph SSE6.6 kmh SSE 7.6 mph12.2 kmh 29.98 in1015.2 mb 0.00 in0.0 mm 0.00 in0.0 mm 0.00 in0.0 mm
06:45 AM 39.9°F4.4°C 34.6°F1.4°C 81% 3.9 mph SSW6.3 kmh SSW 6.0 mph9.7 kmh 29.99 in1015.6 mb 0.00 in0.0 mm 0.00 in0.0 mm 0.00 in0.0 mm
07:00 AM 39.7°F4.3°C 34.7°F1.5°C 82% 3.0 mph S4.8 kmh S 6.0 mph9.7 kmh 29.99 in1015.6 mb 0.00 in0.0 mm 0.00 in0.0 mm 0.00 in0.0 mm
07:15 AM 39.0°F3.9°C 34.3°F1.3°C 83% 2.2 mph W3.5 kmh W 6.0 mph9.7 kmh 29.99 in1015.6 mb 0.00 in0.0 mm 0.00 in0.0 mm 0.00 in0.0 mm
07:30 AM 38.5°F3.6°C 34.1°F1.2°C 84% 1.9 mph WSW3.1 kmh WSW 3.1 mph5.0 kmh 29.97 in1014.9 mb 0.00 in0.0 mm 0.00 in0.0 mm 0.00 in0.0 mm
07:45 AM 38.8°F3.8°C 34.7°F1.5°C 85% 5.4 mph W8.7 kmh W 13.6 mph21.9 kmh 29.97 in1014.9 mb 0.00 in0.0 mm 0.00 in0.0 mm 0.00 in0.0 mm
08:00 AM 39.0°F3.9°C 34.6°F1.4°C 84% 4.1 mph NW6.6 kmh NW 8.3 mph13.4 kmh 29.96 in1014.6 mb 0.00 in0.0 mm 0.00 in0.0 mm 0.00 in0.0 mm
08:15 AM 39.0°F3.9°C 34.3°F1.3°C 83% 3.5 mph WSW5.6 kmh WSW 6.9 mph11.1 kmh 29.96 in1014.6 mb 0.00 in0.0 mm 0.00 in0.0 mm 0.00 in0.0 mm
08:30 AM 39.0°F3.9°C 34.3°F1.3°C 83% 3.5 mph N5.6 kmh N 6.9 mph11.1 kmh 29.96 in1014.6 mb 0.00 in0.0 mm 0.00 in0.0 mm 0.00 in0.0 mm
08:45 AM 39.0°F3.9°C 34.0°F1.1°C 82% 3.2 mph WNW5.1 kmh WNW 6.0 mph9.7 kmh 29.95 in1014.2 mb 0.00 in0.0 mm 0.00 in0.0 mm 0.00 in0.0 mm
09:00 AM 39.0°F3.9°C 34.0°F1.1°C 82% 4.2 mph SW6.8 kmh SW 6.9 mph11.1 kmh 29.95 in1014.2 mb 0.00 in0.0 mm 0.00 in0.0 mm 0.00 in0.0 mm
09:15 AM 39.9°F4.4°C 34.6°F1.4°C 81% 3.7 mph SW6.0 kmh SW 6.9 mph11.1 kmh 29.94 in1013.9 mb 0.00 in0.0 mm 0.00 in0.0 mm 0.00 in0.0 mm
09:30 AM 40.6°F4.8°C 35.3°F1.8°C 81% 4.5 mph SSW7.2 kmh SSW 7.6 mph12.2 kmh 29.94 in1013.9 mb 0.00 in0.0 mm 0.00 in0.0 mm 0.00 in0.0 mm
09:45 AM 40.6°F4.8°C 35.0°F1.7°C 80% 5.3 mph WSW8.5 kmh WSW 9.8 mph15.8 kmh 29.95 in1014.2 mb 0.00 in0.0 mm 0.00 in0.0 mm 0.00 in0.0 mm
10:00 AM 40.8°F4.9°C 35.1°F1.7°C 80% 6.0 mph SE9.7 kmh SE 9.2 mph14.8 kmh 29.94 in1013.9 mb 0.00 in0.0 mm 0.00 in0.0 mm 0.00 in0.0 mm
10:15 AM 43.3°F6.3°C 36.9°F2.7°C 78% 4.0 mph S6.4 kmh S 6.0 mph9.7 kmh 29.93 in1013.5 mb 0.00 in0.0 mm 0.00 in0.0 mm 0.00 in0.0 mm
10:30 AM 46.4°F8.0°C 36.4°F2.4°C 68% 5.5 mph SE8.9 kmh SE 6.0 mph9.7 kmh 29.92 in1013.2 mb 0.00 in0.0 mm 0.00 in0.0 mm 0.00 in0.0 mm
10:45 AM 44.8°F7.1°C 34.1°F1.2°C 66% 5.2 mph NNW8.4 kmh NNW 7.6 mph12.2 kmh 29.91 in1012.9 mb 0.00 in0.0 mm 0.00 in0.0 mm 0.00 in0.0 mm
11:00 AM 42.3°F5.7°C 34.2°F1.2°C 73% 6.0 mph SSE9.7 kmh SSE 8.3 mph13.4 kmh 29.90 in1012.5 mb 0.00 in0.0 mm 0.00 in0.0 mm 0.00 in0.0 mm
11:30 AM 42.1°F5.6°C 34.4°F1.3°C 74% 3.5 mph NW5.6 kmh NW 5.4 mph8.7 kmh 29.90 in1012.5 mb 0.00 in0.0 mm 0.00 in0.0 mm 0.00 in0.0 mm
11:45 AM 41.9°F5.5°C 34.9°F1.6°C 76% 6.2 mph S10.0 kmh S 12.1 mph19.5 kmh 29.89 in1012.2 mb 0.00 in0.0 mm 0.00 in0.0 mm 0.00 in0.0 mm
12:00 PM 41.9°F5.5°C 35.6°F2.0°C 78% 5.2 mph S8.4 kmh S 11.4 mph18.3 kmh 29.88 in1011.9 mb 0.00 in0.0 mm 0.00 in0.0 mm 0.00 in0.0 mm
12:15 PM 41.7°F5.4°C 36.0°F2.2°C 80% 5.9 mph S9.5 kmh S 9.8 mph15.8 kmh 29.87 in1011.5 mb 0.00 in0.0 mm 0.00 in0.0 mm 0.00 in0.0 mm
12:30 PM 41.9°F5.5°C 36.2°F2.3°C 80% 5.3 mph SW8.5 kmh SW 9.8 mph15.8 kmh 29.86 in1011.2 mb 0.00 in0.0 mm 0.00 in0.0 mm 0.00 in0.0 mm
01:00 PM 42.4°F5.8°C 35.8°F2.1°C 77% 7.3 mph SSW11.7 kmh SSW 12.1 mph19.5 kmh 29.84 in1010.5 mb 0.00 in0.0 mm 0.00 in0.0 mm 0.00 in0.0 mm
01:15 PM 42.3°F5.7°C 35.6°F2.0°C 77% 6.6 mph S10.6 kmh S 13.6 mph21.9 kmh 29.83 in1010.2 mb 0.00 in0.0 mm 0.00 in0.0 mm 0.00 in0.0 mm
01:30 PM 42.4°F5.8°C 36.4°F2.4°C 79% 4.5 mph W7.2 kmh W 6.9 mph11.1 kmh 29.83 in1010.2 mb 0.00 in0.0 mm 0.00 in0.0 mm 0.00 in0.0 mm
01:45 PM 42.8°F6.0°C 36.1°F2.3°C 77% 4.3 mph SW6.9 kmh SW 9.2 mph14.8 kmh 29.81 in1009.5 mb 0.00 in0.0 mm 0.00 in0.0 mm 0.00 in0.0 mm
02:00 PM 42.6°F5.9°C 35.9°F2.2°C 77% 5.3 mph S8.5 kmh S 8.3 mph13.4 kmh 29.80 in1009.1 mb 0.00 in0.0 mm 0.00 in0.0 mm 0.00 in0.0 mm
02:15 PM 42.6°F5.9°C 35.9°F2.2°C 77% 4.8 mph SE7.7 kmh SE 10.7 mph17.2 kmh 29.79 in1008.8 mb 0.00 in0.0 mm 0.00 in0.0 mm 0.00 in0.0 mm
02:30 PM 42.8°F6.0°C 36.1°F2.3°C 77% 5.7 mph WNW9.2 kmh WNW 9.8 mph15.8 kmh 29.78 in1008.5 mb 0.00 in0.0 mm 0.00 in0.0 mm 0.00 in0.0 mm
02:45 PM 42.6°F5.9°C 36.3°F2.4°C 78% 4.7 mph SW7.6 kmh SW 6.9 mph11.1 kmh 29.77 in1008.1 mb 0.00 in0.0 mm 0.00 in0.0 mm 0.00 in0.0 mm
03:00 PM 42.3°F5.7°C 36.2°F2.3°C 79% 6.1 mph SSW9.8 kmh SSW 15.2 mph24.5 kmh 29.76 in1007.8 mb 0.00 in0.0 mm 0.00 in0.0 mm 0.00 in0.0 mm
03:15 PM 42.1°F5.6°C 35.7°F2.1°C 78% 8.8 mph SW14.2 kmh SW 11.4 mph18.3 kmh 29.75 in1007.5 mb 0.00 in0.0 mm 0.00 in0.0 mm 0.00 in0.0 mm
03:30 PM 41.9°F5.5°C 35.9°F2.2°C 79% 8.1 mph WSW13.0 kmh WSW 15.2 mph24.5 kmh 29.75 in1007.5 mb 0.00 in0.0 mm 0.00 in0.0 mm 0.00 in0.0 mm
03:45 PM 41.9°F5.5°C 36.2°F2.3°C 80% 14.7 mph S23.7 kmh S 21.3 mph34.3 kmh 29.75 in1007.5 mb 0.00 in0.0 mm 0.00 in0.0 mm 0.00 in0.0 mm
04:00 PM 41.9°F5.5°C 36.2°F2.3°C 80% 9.8 mph S15.8 kmh S 22.8 mph36.7 kmh 29.74 in1007.1 mb 0.00 in0.0 mm 0.00 in0.0 mm 0.00 in0.0 mm
04:15 PM 41.7°F5.4°C 36.0°F2.2°C 80% 6.8 mph SE10.9 kmh SE 12.1 mph19.5 kmh 29.72 in1006.4 mb 0.00 in0.0 mm 0.00 in0.0 mm 0.00 in0.0 mm
04:30 PM 42.4°F5.8°C 36.7°F2.6°C 80% 11.0 mph W17.7 kmh W 16.8 mph27.0 kmh 29.70 in1005.8 mb 0.00 in0.0 mm 0.00 in0.0 mm 0.00 in0.0 mm
04:45 PM 42.6°F5.9°C 36.3°F2.4°C 78% 8.9 mph NNE14.3 kmh NNE 13.6 mph21.9 kmh 29.70 in1005.8 mb 0.00 in0.0 mm 0.00 in0.0 mm 0.00 in0.0 mm
05:00 PM 42.8°F6.0°C 36.1°F2.3°C 77% 9.0 mph NNW14.5 kmh NNW 16.8 mph27.0 kmh 29.69 in1005.4 mb 0.00 in0.0 mm 0.00 in0.0 mm 0.00 in0.0 mm
05:15 PM 42.6°F5.9°C 36.3°F2.4°C 78% 8.5 mph SW13.7 kmh SW 12.1 mph19.5 kmh 29.67 in1004.7 mb 0.00 in0.0 mm 0.00 in0.0 mm 0.00 in0.0 mm
05:30 PM 42.6°F5.9°C 36.3°F2.4°C 78% 12.5 mph SSW20.1 kmh SSW 20.6 mph33.2 kmh 29.65 in1004.1 mb 0.00 in0.0 mm 0.00 in0.0 mm 0.00 in0.0 mm
05:45 PM 42.8°F6.0°C 36.1°F2.3°C 77% 10.4 mph S16.7 kmh S 20.6 mph33.2 kmh 29.64 in1003.7 mb 0.00 in0.0 mm 0.00 in0.0 mm 0.00 in0.0 mm
06:00 PM 42.8°F6.0°C 35.8°F2.1°C 76% 8.4 mph SE13.5 kmh SE 12.1 mph19.5 kmh 29.61 in1002.7 mb 0.00 in0.0 mm 0.00 in0.0 mm 0.00 in0.0 mm
06:30 PM 43.2°F6.2°C 35.8°F2.1°C 75% 6.9 mph S11.1 kmh S 6.9 mph11.1 kmh 29.59 in1002.0 mb 0.00 in0.0 mm 0.00 in0.0 mm 0.00 in0.0 mm
06:45 PM 42.4°F5.8°C 36.7°F2.6°C 80% 11.1 mph N17.9 kmh N 13.6 mph21.9 kmh 29.58 in1001.7 mb 0.00 in0.0 mm 0.00 in0.0 mm 0.00 in0.0 mm
07:00 PM 42.6°F5.9°C 36.3°F2.4°C 78% 11.6 mph NE18.7 kmh NE 16.8 mph27.0 kmh 29.55 in1000.7 mb 0.00 in0.0 mm 0.00 in0.0 mm 0.00 in0.0 mm
07:15 PM 42.8°F6.0°C 35.4°F1.9°C 75% 9.3 mph NNE15.0 kmh NNE 20.6 mph33.2 kmh 29.54 in1000.3 mb 0.00 in0.0 mm 0.00 in0.0 mm 0.00 in0.0 mm
07:30 PM 43.0°F6.1°C 35.6°F2.0°C 75% 8.6 mph WNW13.8 kmh WNW 15.9 mph25.6 kmh 29.53 in1000.0 mb 0.00 in0.0 mm 0.00 in0.0 mm 0.00 in0.0 mm
07:45 PM 43.5°F6.4°C 35.8°F2.1°C 74% 9.2 mph NNW14.8 kmh NNW 16.8 mph27.0 kmh 29.52 in999.7 mb 0.00 in0.0 mm 0.00 in0.0 mm 0.00 in0.0 mm
08:00 PM 43.5°F6.4°C 35.5°F1.9°C 73% 9.0 mph NE14.5 kmh NE 17.4 mph28.0 kmh 29.51 in999.3 mb 0.00 in0.0 mm 0.00 in0.0 mm 0.00 in0.0 mm
08:15 PM 43.5°F6.4°C 35.8°F2.1°C 74% 7.7 mph NE12.4 kmh NE 17.4 mph28.0 kmh 29.51 in999.3 mb 0.00 in0.0 mm 0.00 in0.0 mm 0.00 in0.0 mm
08:45 PM 43.0°F6.1°C 36.3°F2.4°C 77% 5.4 mph WSW8.7 kmh WSW 9.2 mph14.8 kmh 29.49 in998.6 mb 0.01 in0.3 mm 0.02 in0.5 mm 0.01 in0.3 mm
09:00 PM 42.6°F5.9°C 36.9°F2.7°C 80% 10.3 mph NW16.6 kmh NW 23.5 mph37.8 kmh 29.47 in998.0 mb 0.01 in0.3 mm 0.00 in0.0 mm 0.01 in0.3 mm
09:15 PM 42.3°F5.7°C 37.2°F2.9°C 82% 7.5 mph NNW12.1 kmh NNW 13.6 mph21.9 kmh 29.47 in998.0 mb 0.04 in1.0 mm 0.12 in3.0 mm 0.04 in1.0 mm
09:30 PM 42.1°F5.6°C 37.6°F3.1°C 84% 9.3 mph NE15.0 kmh NE 19.0 mph30.6 kmh 29.45 in997.3 mb 0.05 in1.3 mm 0.04 in1.0 mm 0.05 in1.3 mm
09:45 PM 41.9°F5.5°C 37.4°F3.0°C 84% 6.6 mph N10.6 kmh N 10.7 mph17.2 kmh 29.45 in997.3 mb 0.04 in1.0 mm 0.00 in0.0 mm 0.05 in1.3 mm
10:00 PM 41.9°F5.5°C 37.7°F3.2°C 85% 6.9 mph NE11.1 kmh NE 13.6 mph21.9 kmh 29.44 in997.0 mb 0.04 in1.0 mm 0.00 in0.0 mm 0.05 in1.3 mm
10:15 PM 42.1°F5.6°C 37.9°F3.3°C 85% 5.7 mph NNE9.2 kmh NNE 8.3 mph13.4 kmh 29.42 in996.3 mb 0.04 in1.0 mm 0.00 in0.0 mm 0.07 in1.8 mm
10:30 PM 42.3°F5.7°C 38.7°F3.7°C 87% 8.6 mph SE13.8 kmh SE 13.0 mph20.9 kmh 29.41 in995.9 mb 0.04 in1.0 mm 0.00 in0.0 mm 0.08 in2.0 mm
10:45 PM 42.6°F5.9°C 39.3°F4.1°C 88% 6.3 mph SSE10.1 kmh SSE 9.8 mph15.8 kmh 29.39 in995.3 mb 0.04 in1.0 mm 0.00 in0.0 mm 0.08 in2.0 mm
11:00 PM 43.2°F6.2°C 39.3°F4.1°C 86% 8.8 mph SW14.2 kmh SW 14.5 mph23.3 kmh 29.38 in994.9 mb 0.05 in1.3 mm 0.01 in0.3 mm 0.09 in2.3 mm
11:15 PM 43.5°F6.4°C 39.0°F3.9°C 84% 8.5 mph SE13.7 kmh SE 13.0 mph20.9 kmh 29.37 in994.6 mb 0.02 in0.5 mm 0.00 in0.0 mm 0.09 in2.3 mm
11:30 PM 44.1°F6.7°C 39.5°F4.2°C 84% 9.3 mph SSE15.0 kmh SSE 13.6 mph21.9 kmh 29.36 in994.2 mb 0.01 in0.3 mm 0.00 in0.0 mm 0.09 in2.3 mm
11:45 PM 44.2°F6.8°C 39.7°F4.3°C 84% 6.9 mph E11.1 kmh E 9.2 mph14.8 kmh 29.35 in993.9 mb 0.01 in0.3 mm 0.00 in0.0 mm 0.09 in2.3 mm